Time;durP1;ratioP1;P1;durP2;ratioP2;P2;SDS_P1;SDS_P2;PMS_P1;PMS_P2;Temp;Humidity;BMP_temperature;BMP_pressure;BME280_temperature;BME280_humidity;BME280_pressure;Samples;Min_cycle;Max_cycle;Signal;HPM_P1;HPM_P2
2020/04/26 00:00:09;;;;;;;20.2;18.1;;;;;;;;;;;;;
2020/04/26 00:02:34;;;;;;;18.3;16.4;;;;;;;;;;;;;
2020/04/26 00:05:02;;;;;;;20.1;18;;;;;;;;;;;;;
2020/04/26 00:07:28;;;;;;;21.1;18.6;;;;;;;;;;;;;
2020/04/26 00:09:53;;;;;;;20.5;18.3;;;;;;;;;;;;;
2020/04/26 00:12:18;;;;;;;20.2;16.7;;;;;;;;;;;;;
2020/04/26 00:14:43;;;;;;;18.3;16.4;;;;;;;;;;;;;
2020/04/26 00:17:08;;;;;;;17.7;15.8;;;;;;;;;;;;;
2020/04/26 00:19:33;;;;;;;17.8;16;;;;;;;;;;;;;
2020/04/26 00:21:59;;;;;;;19.6;17.6;;;;;;;;;;;;;
2020/04/26 00:24:24;;;;;;;18.9;17;;;;;;;;;;;;;
2020/04/26 00:26:50;;;;;;;18;16.2;;;;;;;;;;;;;
2020/04/26 00:29:16;;;;;;;16.2;14.6;;;;;;;;;;;;;
2020/04/26 00:31:41;;;;;;;16.3;14.6;;;;;;;;;;;;;
2020/04/26 00:34:06;;;;;;;16.4;14.7;;;;;;;;;;;;;
2020/04/26 00:36:31;;;;;;;16.5;14.8;;;;;;;;;;;;;
2020/04/26 00:38:56;;;;;;;16.8;15.1;;;;;;;;;;;;;
2020/04/26 00:41:23;;;;;;;17.8;16;;;;;;;;;;;;;
2020/04/26 00:43:48;;;;;;;19.1;17.2;;;;;;;;;;;;;
2020/04/26 00:46:15;;;;;;;18.1;16.3;;;;;;;;;;;;;
2020/04/26 00:48:40;;;;;;;17.6;15.8;;;;;;;;;;;;;
2020/04/26 00:51:07;;;;;;;17;15.2;;;;;;;;;;;;;
2020/04/26 00:53:32;;;;;;;16.9;15.2;;;;;;;;;;;;;
2020/04/26 00:56:00;;;;;;;18.7;16.8;;;;;;;;;;;;;
2020/04/26 00:58:25;;;;;;;17.1;15.3;;;;;;;;;;;;;
2020/04/26 01:00:52;;;;;;;16.9;14.7;;;;;;;;;;;;;
2020/04/26 01:03:20;;;;;;;16.7;15;;;;;;;;;;;;;
2020/04/26 01:08:08;;;;;;;17.5;15.8;;;;;;;;;;;;;
2020/04/26 01:10:33;;;;;;;18.1;15;;;;;;;;;;;;;
2020/04/26 01:12:59;;;;;;;18.1;16.2;;;;;;;;;;;;;
2020/04/26 01:15:27;;;;;;;17.1;15.4;;;;;;;;;;;;;
2020/04/26 01:17:52;;;;;;;16.4;14.8;;;;;;;;;;;;;
2020/04/26 01:20:20;;;;;;;16.8;15.1;;;;;;;;;;;;;
2020/04/26 01:22:45;;;;;;;17.6;15.7;;;;;;;;;;;;;
2020/04/26 01:25:11;;;;;;;17.1;15.3;;;;;;;;;;;;;
2020/04/26 01:27:36;;;;;;;17.3;15.6;;;;;;;;;;;;;
2020/04/26 01:30:03;;;;;;;15.5;13.8;;;;;;;;;;;;;
2020/04/26 01:32:28;;;;;;;14.7;13.3;;;;;;;;;;;;;
2020/04/26 01:34:53;;;;;;;16;14.2;;;;;;;;;;;;;
2020/04/26 01:37:18;;;;;;;15.1;13.6;;;;;;;;;;;;;
2020/04/26 01:42:13;;;;;;;13.5;12.2;;;;;;;;;;;;;
2020/04/26 01:44:39;;;;;;;13.7;12.3;;;;;;;;;;;;;
2020/04/26 01:47:04;;;;;;;14.6;13.1;;;;;;;;;;;;;
2020/04/26 01:49:29;;;;;;;14.9;13.2;;;;;;;;;;;;;
2020/04/26 01:51:54;;;;;;;15.4;13.8;;;;;;;;;;;;;
2020/04/26 01:54:20;;;;;;;15.1;13.6;;;;;;;;;;;;;
2020/04/26 01:56:45;;;;;;;15.5;14.1;;;;;;;;;;;;;
2020/04/26 01:59:10;;;;;;;15.7;14.2;;;;;;;;;;;;;
2020/04/26 02:01:35;;;;;;;16.1;14.6;;;;;;;;;;;;;
2020/04/26 02:04:01;;;;;;;17.1;14.9;;;;;;;;;;;;;
2020/04/26 02:06:26;;;;;;;17;15.3;;;;;;;;;;;;;
2020/04/26 02:08:53;;;;;;;17.1;15.2;;;;;;;;;;;;;
2020/04/26 02:11:18;;;;;;;16.1;14.5;;;;;;;;;;;;;
2020/04/26 02:13:43;;;;;;;16.4;14.6;;;;;;;;;;;;;
2020/04/26 02:16:08;;;;;;;15.3;13.8;;;;;;;;;;;;;
2020/04/26 02:18:35;;;;;;;15.4;13.7;;;;;;;;;;;;;
2020/04/26 02:21:00;;;;;;;15.8;14.3;;;;;;;;;;;;;
2020/04/26 02:23:25;;;;;;;15.5;13.9;;;;;;;;;;;;;
2020/04/26 02:25:50;;;;;;;17.2;15.5;;;;;;;;;;;;;
2020/04/26 02:28:16;;;;;;;18.5;16.7;;;;;;;;;;;;;
2020/04/26 02:30:41;;;;;;;19.4;17.4;;;;;;;;;;;;;
2020/04/26 02:33:41;;;;;;;19.4;16.9;;;;;;;;;;;;;
2020/04/26 02:35:57;;;;;;;19.7;17.6;;;;;;;;;;;;;
2020/04/26 02:38:13;;;;;;;18.3;16.5;;;;;;;;;;;;;
2020/04/26 02:41:03;;;;;;;17.5;15.8;;;;;;;;;;;;;
2020/04/26 02:45:27;;;;;;;18;16.2;;;;;;;;;;;;;
2020/04/26 02:52:50;;;;;;;18.1;16.4;;;;;;;;;;;;;
2020/04/26 02:55:06;;;;;;;16.9;15.3;;;;;;;;;;;;;
2020/04/26 02:57:27;;;;;;;17.5;15.8;;;;;;;;;;;;;
2020/04/26 02:59:52;;;;;;;16.4;14.6;;;;;;;;;;;;;
2020/04/26 03:02:32;;;;;;;16.3;14.6;;;;;;;;;;;;;
2020/04/26 03:04:58;;;;;;;19.2;16.1;;;;;;;;;;;;;
2020/04/26 03:07:19;;;;;;;19.6;16.2;;;;;;;;;;;;;
2020/04/26 03:14:29;;;;;;;24.3;17.2;;;;;;;;;;;;;
2020/04/26 03:16:52;;;;;;;24.5;18.5;;;;;;;;;;;;;
2020/04/26 03:19:46;;;;;;;21.9;16.3;;;;;;;;;;;;;
2020/04/26 03:26:31;;;;;;;14.1;12.7;;;;;;;;;;;;;
2020/04/26 03:29:03;;;;;;;13.7;12.4;;;;;;;;;;;;;
2020/04/26 03:31:24;;;;;;;14;12.6;;;;;;;;;;;;;
2020/04/26 03:34:03;;;;;;;13.8;12.4;;;;;;;;;;;;;
2020/04/26 03:36:20;;;;;;;14.9;13.3;;;;;;;;;;;;;
2020/04/26 03:41:03;;;;;;;16.7;14.5;;;;;;;;;;;;;
2020/04/26 03:43:39;;;;;;;15.8;14.2;;;;;;;;;;;;;
2020/04/26 03:53:17;;;;;;;14.9;13.4;;;;;;;;;;;;;
2020/04/26 03:55:40;;;;;;;15;13.5;;;;;;;;;;;;;
2020/04/26 03:57:59;;;;;;;15;13.5;;;;;;;;;;;;;
2020/04/26 04:02:39;;;;;;;14.9;13.3;;;;;;;8.87;85.44922;930.7095;;;;
2020/04/26 04:05:15;;;;;;;15.7;14.2;;;;;;;8.84;85.42285;930.7047;;;;
2020/04/26 04:07:39;;;;;;;15.9;14.3;;;;;;;8.76;85.4043;930.6771;;;;
2020/04/26 04:10:01;;;;;;;15.8;14.2;;;;;;;8.75;85.8457;930.6906;;;;
2020/04/26 04:12:19;;;;;;;17;15.3;;;;;;;8.6;86.10156;930.7031;;;;
2020/04/26 04:14:43;;;;;;;15.9;14.3;;;;;;;8.57;86.32324;930.7006;;;;
2020/04/26 04:17:14;;;;;;;16.2;14.5;;;;;;;8.64;86.13184;930.7004;;;;
2020/04/26 04:19:53;;;;;;;16.7;14.9;;;;;;;8.68;86.2998;930.6887;;;;
2020/04/26 04:22:03;;;;;;;16.9;15.2;;;;;;;8.66;86.44238;930.7188;;;;
2020/04/26 04:24:26;;;;;;;15.9;14.4;;;;;;;8.57;86.24414;930.7141;;;;
2020/04/26 04:26:54;;;;;;;17.4;14.9;;;;;;;8.57;86.25488;930.8546;;;;
2020/04/26 04:34:14;;;;;;;13.1;11.8;;;;;;;8.51;84.36719;930.9083;;;;
2020/04/26 04:36:32;;;;;;;9.3;8.4;;;;;;;8.36;82.83984;930.8786;;;;
2020/04/26 04:41:41;;;;;;;14.2;12.8;;;;;;;8.37;84.81641;930.8873;;;;
2020/04/26 04:46:16;;;;;;;13.2;11.9;;;;;;;8.38;84.81836;930.9659;;;;
2020/04/26 04:51:06;;;;;;;14.8;13;;;;;;;8.43;84.96289;930.9586;;;;
2020/04/26 04:53:30;;;;;;;13.1;11.7;;;;;;;8.36;84.10059;930.9532;;;;
2020/04/26 04:55:56;;;;;;;14.3;12.8;;;;;;;8.22;84.85645;930.952;;;;
2020/04/26 05:00:50;;;;;;;15.2;13.7;;;;;;;8.24;85.24609;931.0251;;;;
2020/04/26 05:03:17;;;;;;;15.5;13.9;;;;;;;8.2;85.89746;930.9992;;;;
2020/04/26 05:05:52;;;;;;;15.2;13.7;;;;;;;8.32;85.85254;930.9669;;;;
2020/04/26 05:10:35;;;;;;;14.6;13.1;;;;;;;8.54;84.52051;931.0234;;;;
2020/04/26 05:12:59;;;;;;;15.1;13.6;;;;;;;8.59;84.37207;931.0673;;;;
2020/04/26 05:15:13;;;;;;;15.3;13.8;;;;;;;8.65;84.31445;931.0703;;;;
2020/04/26 05:17:46;;;;;;;14.8;13.4;;;;;;;;;;;;;
2020/04/26 05:24:59;;;;;;;15.5;13.9;;;;;;;;;;;;;
2020/04/26 05:32:17;;;;;;;13.5;12.1;;;;;;;;;;;;;
2020/04/26 05:34:39;;;;;;;9;8.1;;;;;;;;;;;;;
2020/04/26 05:39:27;;;;;;;8.2;7.2;;;;;;;;;;;;;
2020/04/26 05:44:16;;;;;;;7.8;7.1;;;;;;;;;;;;;
2020/04/26 05:46:42;;;;;;;7.7;6.9;;;;;;;;;;;;;
2020/04/26 05:53:59;;;;;;;8.9;7.2;;;;;;;;;;;;;
2020/04/26 05:56:23;;;;;;;8.5;7.1;;;;;;;;;;;;;
2020/04/26 05:58:48;;;;;;;7.1;6.2;;;;;;;;;;;;;
2020/04/26 06:03:52;;;;;;;8.6;6.6;;;;;;;;;;;;;
2020/04/26 06:06:09;;;;;;;6.7;5.7;;;;;;;;;;;;;
2020/04/26 06:09:07;;;;;;;6.8;5.1;;;;;;;;;;;;;
2020/04/26 06:11:10;;;;;;;6.3;5.2;;;;;;;;;;;;;
2020/04/26 06:14:48;;;;;;;7.3;5.2;;;;;;;;;;;;;
2020/04/26 06:18:06;;;;;;;6.3;5.3;;;;;;;;;;;;;
2020/04/26 06:23:01;;;;;;;8.4;5.3;;;;;;;;;;;;;
2020/04/26 06:25:44;;;;;;;7.3;5.4;;;;;;;;;;;;;
2020/04/26 06:30:21;;;;;;;8.4;6.3;;;;;;;;;;;;;
2020/04/26 06:35:11;;;;;;;11.7;6.7;;;;;;;;;;;;;
2020/04/26 06:37:33;;;;;;;14.8;10.2;;;;;;;;;;;;;
2020/04/26 06:42:39;;;;;;;10.7;6.8;;;;;;;;;;;;;
2020/04/26 06:44:52;;;;;;;7.9;5.9;;;;;;;;;;;;;
2020/04/26 06:47:11;;;;;;;6.2;5.5;;;;;;;;;;;;;
2020/04/26 06:52:32;;;;;;;7.5;5.2;;;;;;;;;;;;;
2020/04/26 06:59:28;;;;;;;12.6;6.6;;;;;;;;;;;;;
2020/04/26 07:06:31;;;;;;;8;5.2;;;;;;;;;;;;;
2020/04/26 07:08:56;;;;;;;7;5.3;;;;;;;;;;;;;
2020/04/26 07:11:27;;;;;;;7.3;5.3;;;;;;;;;;;;;
2020/04/26 07:18:53;;;;;;;6.9;5;;;;;;;;;;;;;
2020/04/26 07:21:07;;;;;;;6.9;4.6;;;;;;;;;;;;;
2020/04/26 07:23:26;;;;;;;6.8;4.8;;;;;;;;;;;;;
2020/04/26 07:25:49;;;;;;;8.7;4.6;;;;;;;;;;;;;
2020/04/26 07:28:22;;;;;;;6.7;4.3;;;;;;;;;;;;;
2020/04/26 07:35:37;;;;;;;5.2;4.4;;;;;;;;;;;;;
2020/04/26 07:38:20;;;;;;;6.1;4.6;;;;;;;;;;;;;
2020/04/26 07:40:33;;;;;;;7.1;4.6;;;;;;;;;;;;;
2020/04/26 07:45:33;;;;;;;6.1;4.6;;;;;;;;;;;;;
2020/04/26 07:50:05;;;;;;;6;3.8;;;;;;;;;;;;;
2020/04/26 07:52:26;;;;;;;5;4;;;;;;;;;;;;;
2020/04/26 07:54:51;;;;;;;5.3;3.7;;;;;;;;;;;;;
2020/04/26 07:57:16;;;;;;;5.7;3.5;;;;;;;;;;;;;
2020/04/26 07:59:41;;;;;;;6.2;4;;;;;;;;;;;;;
2020/04/26 08:02:06;;;;;;;5.2;3.6;;;;;;;;;;;;;
2020/04/26 08:04:32;;;;;;;4.8;3.8;;;;;;;;;;;;;
2020/04/26 08:06:57;;;;;;;7.4;4;;;;;;;;;;;;;
2020/04/26 08:09:23;;;;;;;5.2;3.6;;;;;;;;;;;;;
2020/04/26 08:11:48;;;;;;;6.5;3.6;;;;;;;;;;;;;
2020/04/26 08:14:14;;;;;;;7;3.8;;;;;;;;;;;;;
2020/04/26 08:16:39;;;;;;;5.6;3.6;;;;;;;;;;;;;
2020/04/26 08:19:05;;;;;;;7.6;3.8;;;;;;;;;;;;;
2020/04/26 08:21:30;;;;;;;6.3;4;;;;;;;;;;;;;
2020/04/26 08:23:56;;;;;;;5.6;3.8;;;;;;;;;;;;;
2020/04/26 08:26:21;;;;;;;5.2;3.4;;;;;;;;;;;;;
2020/04/26 08:28:47;;;;;;;5.6;3.5;;;;;;;;;;;;;
2020/04/26 08:31:13;;;;;;;5.8;3.3;;;;;;;;;;;;;
2020/04/26 08:33:37;;;;;;;8.9;3.8;;;;;;;;;;;;;
2020/04/26 08:36:04;;;;;;;6.9;3.5;;;;;;;;;;;;;
2020/04/26 08:38:29;;;;;;;6.6;3.7;;;;;;;;;;;;;
2020/04/26 08:40:54;;;;;;;6.8;3.9;;;;;;;;;;;;;
2020/04/26 08:43:19;;;;;;;4.6;3.6;;;;;;;;;;;;;
2020/04/26 08:45:45;;;;;;;5.8;3.5;;;;;;;;;;;;;
2020/04/26 08:48:10;;;;;;;6.1;3.4;;;;;;;;;;;;;
2020/04/26 08:50:35;;;;;;;5.2;3.3;;;;;;;;;;;;;
2020/04/26 08:53:00;;;;;;;5;3.1;;;;;;;;;;;;;
2020/04/26 08:55:26;;;;;;;5.2;3.2;;;;;;;;;;;;;
2020/04/26 08:57:51;;;;;;;5.9;3.6;;;;;;;;;;;;;
2020/04/26 09:00:19;;;;;;;5.8;2.9;;;;;;;;;;;;;
2020/04/26 09:02:44;;;;;;;5.5;3.2;;;;;;;;;;;;;
2020/04/26 09:05:09;;;;;;;4.9;3.1;;;;;;;;;;;;;
2020/04/26 09:07:34;;;;;;;6.7;3.4;;;;;;;;;;;;;
2020/04/26 09:10:00;;;;;;;4.7;3.1;;;;;;;;;;;;;
2020/04/26 09:12:25;;;;;;;7.8;3.6;;;;;;;;;;;;;
2020/04/26 09:14:50;;;;;;;5.6;3.4;;;;;;;;;;;;;
2020/04/26 09:17:15;;;;;;;7.6;3.5;;;;;;;;;;;;;
2020/04/26 09:19:40;;;;;;;6.7;3.5;;;;;;;;;;;;;
2020/04/26 09:22:06;;;;;;;6.1;3.6;;;;;;;;;;;;;
2020/04/26 09:24:30;;;;;;;7.3;3.8;;;;;;;;;;;;;
2020/04/26 09:26:56;;;;;;;6.9;3.9;;;;;;;;;;;;;
2020/04/26 09:29:21;;;;;;;5.9;3.8;;;;;;;;;;;;;
2020/04/26 09:31:47;;;;;;;5.3;3.8;;;;;;;;;;;;;
2020/04/26 09:34:12;;;;;;;8.8;4;;;;;;;;;;;;;
2020/04/26 09:36:38;;;;;;;5.1;3.7;;;;;;;;;;;;;
2020/04/26 09:39:04;;;;;;;4.2;3.6;;;;;;;;;;;;;
2020/04/26 09:41:28;;;;;;;6.3;3.9;;;;;;;;;;;;;
2020/04/26 09:43:54;;;;;;;6;3.7;;;;;;;;;;;;;
2020/04/26 09:46:19;;;;;;;6.8;3.9;;;;;;;;;;;;;
2020/04/26 09:48:44;;;;;;;7.6;4.4;;;;;;;;;;;;;
2020/04/26 09:51:09;;;;;;;7.4;3.8;;;;;;;;;;;;;
2020/04/26 09:53:35;;;;;;;5.9;4;;;;;;;;;;;;;
2020/04/26 09:56:01;;;;;;;7.4;3.9;;;;;;;;;;;;;
2020/04/26 09:58:26;;;;;;;5.8;3.7;;;;;;;;;;;;;
2020/04/26 10:00:52;;;;;;;5.8;3.7;;;;;;;;;;;;;
2020/04/26 10:03:18;;;;;;;4.2;3.6;;;;;;;;;;;;;
2020/04/26 10:05:43;;;;;;;7.8;4;;;;;;;;;;;;;
2020/04/26 10:08:08;;;;;;;8.5;3.6;;;;;;;;;;;;;
2020/04/26 10:10:33;;;;;;;7.1;3.8;;;;;;;;;;;;;
2020/04/26 10:12:58;;;;;;;4.2;3.8;;;;;;;;;;;;;
2020/04/26 10:15:24;;;;;;;5.1;3.8;;;;;;;;;;;;;
2020/04/26 10:17:49;;;;;;;5.8;3.6;;;;;;;;;;;;;
2020/04/26 10:20:14;;;;;;;16.2;5.5;;;;;;;;;;;;;
2020/04/26 10:22:39;;;;;;;6.7;4;;;;;;;;;;;;;
2020/04/26 10:25:04;;;;;;;4.8;3.6;;;;;;;;;;;;;
2020/04/26 10:27:29;;;;;;;4.3;3.6;;;;;;;;;;;;;
2020/04/26 10:29:55;;;;;;;6.5;3.7;;;;;;;;;;;;;
2020/04/26 10:32:20;;;;;;;4.9;3.6;;;;;;;;;;;;;
2020/04/26 10:34:45;;;;;;;6.9;3.5;;;;;;;;;;;;;
2020/04/26 10:37:10;;;;;;;3.7;3;;;;;;;;;;;;;
2020/04/26 10:39:36;;;;;;;6.2;3.5;;;;;;;;;;;;;
2020/04/26 10:42:02;;;;;;;6.9;3.6;;;;;;;;;;;;;
2020/04/26 10:44:27;;;;;;;5.6;3.3;;;;;;;;;;;;;
2020/04/26 10:46:53;;;;;;;4.3;3.5;;;;;;;;;;;;;
2020/04/26 10:49:18;;;;;;;5;3.1;;;;;;;;;;;;;
2020/04/26 10:51:43;;;;;;;6.4;3.3;;;;;;;;;;;;;
2020/04/26 10:54:08;;;;;;;5;3.3;;;;;;;;;;;;;
2020/04/26 10:56:33;;;;;;;6.3;3.2;;;;;;;;;;;;;
2020/04/26 10:58:58;;;;;;;6.8;3.3;;;;;;;;;;;;;
2020/04/26 11:01:23;;;;;;;8.5;3;;;;;;;;;;;;;
2020/04/26 11:03:49;;;;;;;5.3;3.3;;;;;;;;;;;;;
2020/04/26 11:06:14;;;;;;;5.4;2.8;;;;;;;;;;;;;
2020/04/26 11:08:40;;;;;;;5;2.8;;;;;;;;;;;;;
2020/04/26 11:11:05;;;;;;;5.5;3;;;;;;;;;;;;;
2020/04/26 11:13:30;;;;;;;4.1;2.8;;;;;;;;;;;;;
2020/04/26 11:15:55;;;;;;;5;3;;;;;;;;;;;;;
2020/04/26 11:18:20;;;;;;;3.5;2.8;;;;;;;;;;;;;
2020/04/26 11:20:45;;;;;;;4.6;3;;;;;;;;;;;;;
2020/04/26 11:23:10;;;;;;;7.2;3.2;;;;;;;;;;;;;
2020/04/26 11:25:36;;;;;;;4.1;2.8;;;;;;;;;;;;;
2020/04/26 11:28:01;;;;;;;4.8;2.9;;;;;;;;;;;;;
2020/04/26 11:32:51;;;;;;;8.8;3;;;;;;;;;;;;;
2020/04/26 11:35:16;;;;;;;6.3;3.1;;;;;;;;;;;;;
2020/04/26 11:37:42;;;;;;;3.7;2.5;;;;;;;;;;;;;
2020/04/26 11:40:07;;;;;;;4.9;2.9;;;;;;;;;;;;;
2020/04/26 11:42:33;;;;;;;3.6;2.5;;;;;;;;;;;;;
2020/04/26 11:44:58;;;;;;;5.3;2.7;;;;;;;;;;;;;
2020/04/26 11:47:24;;;;;;;4.4;3;;;;;;;;;;;;;
2020/04/26 11:49:49;;;;;;;5.2;2.8;;;;;;;;;;;;;
2020/04/26 11:52:14;;;;;;;6.1;2.8;;;;;;;;;;;;;
2020/04/26 11:54:39;;;;;;;4.4;2.8;;;;;;;;;;;;;
2020/04/26 11:57:04;;;;;;;3.6;2.5;;;;;;;;;;;;;
2020/04/26 11:59:29;;;;;;;5.6;2.8;;;;;;;;;;;;;
2020/04/26 12:01:54;;;;;;;4.7;2.5;;;;;;;;;;;;;
2020/04/26 12:04:19;;;;;;;4.9;2.5;;;;;;;;;;;;;
2020/04/26 12:06:44;;;;;;;4.7;2.4;;;;;;;;;;;;;
2020/04/26 12:09:12;;;;;;;5;2.3;;;;;;;;;;;;;
2020/04/26 12:11:37;;;;;;;4.9;2.8;;;;;;;;;;;;;
2020/04/26 12:14:02;;;;;;;3.4;2.7;;;;;;;;;;;;;
2020/04/26 12:16:28;;;;;;;3.8;2.9;;;;;;;;;;;;;
2020/04/26 12:18:53;;;;;;;4.5;2.5;;;;;;;;;;;;;
2020/04/26 12:21:18;;;;;;;6.3;2.6;;;;;;;;;;;;;
2020/04/26 12:23:43;;;;;;;4.1;2.5;;;;;;;;;;;;;
2020/04/26 12:26:09;;;;;;;5.6;2.4;;;;;;;;;;;;;
2020/04/26 12:28:34;;;;;;;5.8;2.6;;;;;;;;;;;;;
2020/04/26 12:31:24;;;;;;;5.3;2.5;;;;;;;;;;;;;
2020/04/26 12:33:33;;;;;;;4.6;2.5;;;;;;;;;;;;;
2020/04/26 12:35:59;;;;;;;7.1;2.5;;;;;;;;;;;;;
2020/04/26 12:38:31;;;;;;;7.8;2.7;;;;;;;;;;;;;
2020/04/26 12:40:51;;;;;;;4.3;2.6;;;;;;;;;;;;;
2020/04/26 12:45:52;;;;;;;4.7;2.5;;;;;;;;;;;;;
2020/04/26 12:50:43;;;;;;;4.6;2.9;;;;;;;;;;;;;
2020/04/26 12:57:52;;;;;;;5.8;2.8;;;;;;;;;;;;;
2020/04/26 13:00:13;;;;;;;4.1;2.6;;;;;;;;;;;;;
2020/04/26 13:02:48;;;;;;;4.7;2.3;;;;;;;;;;;;;
2020/04/26 13:04:56;;;;;;;4.6;2.4;;;;;;;;;;;;;
2020/04/26 13:09:51;;;;;;;5;2.3;;;;;;;;;;;;;
2020/04/26 13:12:50;;;;;;;7;3;;;;;;;;;;;;;
2020/04/26 13:17:11;;;;;;;5;2.4;;;;;;;;;;;;;
2020/04/26 13:19:34;;;;;;;6.1;2.4;;;;;;;;;;;;;
2020/04/26 13:22:05;;;;;;;4;2.3;;;;;;;;;;;;;
2020/04/26 13:26:46;;;;;;;4.8;2.6;;;;;;;;;;;;;
2020/04/26 13:29:18;;;;;;;4.1;2.6;;;;;;;;;;;;;
2020/04/26 13:31:35;;;;;;;5.5;2.8;;;;;;;;;;;;;
2020/04/26 13:34:02;;;;;;;5.3;2.6;;;;;;;;;;;;;
2020/04/26 13:36:40;;;;;;;5.1;2.4;;;;;;;;;;;;;
2020/04/26 13:38:51;;;;;;;6.7;2.5;;;;;;;;;;;;;
2020/04/26 13:41:15;;;;;;;5.1;2.4;;;;;;;;;;;;;
2020/04/26 13:50:02;;;;;;;8;2.7;;;;;;;;;;;;;
2020/04/26 13:51:06;;;;;;;3.4;2.5;;;;;;;;;;;;;
2020/04/26 13:53:56;;;;;;;5.3;2.6;;;;;;;;;;;;;
2020/04/26 14:03:06;;;;;;;3.1;2.4;;;;;;;;;;;;;
2020/04/26 14:05:51;;;;;;;5;2.5;;;;;;;;;;;;;
2020/04/26 14:08:27;;;;;;;7.1;2.8;;;;;;;;;;;;;
2020/04/26 14:10:32;;;;;;;5.2;2.7;;;;;;;;;;;;;
2020/04/26 14:12:45;;;;;;;6.4;2.4;;;;;;;;;;;;;
2020/04/26 14:15:18;;;;;;;4.7;2.8;;;;;;;;;;;;;
2020/04/26 14:17:41;;;;;;;8.7;2.4;;;;;;;;;;;;;
2020/04/26 14:20:02;;;;;;;7.1;2.4;;;;;;;;;;;;;
2020/04/26 14:22:29;;;;;;;4.2;2.4;;;;;;;;;;;;;
2020/04/26 14:25:01;;;;;;;8.9;2.6;;;;;;;;;;;;;
2020/04/26 14:27:17;;;;;;;4.7;2.6;;;;;;;;;;;;;
2020/04/26 14:32:23;;;;;;;5;2.5;;;;;;;;;;;;;
2020/04/26 14:34:41;;;;;;;4;2.5;;;;;;;;;;;;;
2020/04/26 14:37:14;;;;;;;4.3;2.6;;;;;;;;;;;;;
2020/04/26 14:40:10;;;;;;;6.3;2.7;;;;;;;;;;;;;
2020/04/26 14:41:56;;;;;;;5.7;2.7;;;;;;;;;;;;;
2020/04/26 14:49:53;;;;;;;5.1;2.8;;;;;;;;;;;;;
2020/04/26 14:51:41;;;;;;;6.5;3;;;;;;;;;;;;;
2020/04/26 14:54:40;;;;;;;5.1;3.2;;;;;;;;;;;;;
2020/04/26 14:56:23;;;;;;;5.9;2.8;;;;;;;;;;;;;
2020/04/26 14:58:53;;;;;;;4.2;3.1;;;;;;;;;;;;;
2020/04/26 15:01:26;;;;;;;4.7;2.9;;;;;;;;;;;;;
2020/04/26 15:03:44;;;;;;;4.8;3.3;;;;;;;;;;;;;
2020/04/26 15:06:14;;;;;;;4;3.2;;;;;;;;;;;;;
2020/04/26 15:08:42;;;;;;;6.6;3.4;;;;;;;;;;;;;
2020/04/26 15:13:27;;;;;;;5.4;3.4;;;;;;;;;;;;;
2020/04/26 15:15:55;;;;;;;6.5;3.3;;;;;;;;;;;;;
2020/04/26 15:20:40;;;;;;;4.8;3.4;;;;;;;;;;;;;
2020/04/26 15:23:53;;;;;;;5;3.3;;;;;;;;;;;;;
2020/04/26 15:25:35;;;;;;;6.7;3.5;;;;;;;;;;;;;
2020/04/26 15:28:34;;;;;;;5;3.5;;;;;;;;;;;;;
2020/04/26 15:30:19;;;;;;;6.5;3.9;;;;;;;;;;;;;
2020/04/26 15:33:26;;;;;;;6.2;4;;;;;;;;;;;;;
2020/04/26 15:35:13;;;;;;;4.1;3.4;;;;;;;;;;;;;
2020/04/26 15:37:32;;;;;;;4.9;3.7;;;;;;;;;;;;;
2020/04/26 15:40:02;;;;;;;5.9;3.8;;;;;;;;;;;;;
2020/04/26 15:42:20;;;;;;;5.4;3.7;;;;;;;;;;;;;
2020/04/26 15:47:15;;;;;;;7.2;3.1;;;;;;;;;;;;;
2020/04/26 15:49:49;;;;;;;5.8;3.2;;;;;;;;;;;;;
2020/04/26 15:52:09;;;;;;;3.7;2.7;;;;;;;;;;;;;
2020/04/26 15:54:38;;;;;;;5.8;2.9;;;;;;;;;;;;;
2020/04/26 15:59:52;;;;;;;6.5;3.5;;;;;;;;;;;;;
2020/04/26 16:03:26;;;;;;;4.7;3;;;;;;;;;;;;;
2020/04/26 16:04:17;;;;;;;4.3;2.5;;;;;;;;;;;;;
2020/04/26 16:06:37;;;;;;;6.3;2.6;;;;;;;;;;;;;
2020/04/26 16:11:23;;;;;;;6.3;2.6;;;;;;;;;;;;;
2020/04/26 16:13:49;;;;;;;3;2.5;;;;;;;;;;;;;
2020/04/26 16:16:14;;;;;;;7.1;2.6;;;;;;;;;;;;;
2020/04/26 16:18:40;;;;;;;5.9;2.6;;;;;;;;;;;;;
2020/04/26 16:25:56;;;;;;;4.8;2.7;;;;;;;;;;;;;
2020/04/26 16:38:19;;;;;;;3.5;2.4;;;;;;;;;;;;;
2020/04/26 16:40:23;;;;;;;4.4;2.1;;;;;;;;;;;;;
2020/04/26 16:42:51;;;;;;;6.7;2.5;;;;;;;;;;;;;
2020/04/26 16:47:48;;;;;;;5.4;2.5;;;;;;;;;;;;;
2020/04/26 16:55:15;;;;;;;4.6;3.1;;;;;;;;;;;;;
2020/04/26 16:57:20;;;;;;;8.3;3.2;;;;;;;;;;;;;
2020/04/26 17:00:00;;;;;;;4.8;2.5;;;;;;;;;;;;;
2020/04/26 17:04:32;;;;;;;6.1;2.8;;;;;;;;;;;;;
2020/04/26 17:07:06;;;;;;;7.7;2.9;;;;;;;;;;;;;
2020/04/26 17:09:19;;;;;;;4.8;2.7;;;;;;;;;;;;;
2020/04/26 17:11:44;;;;;;;5.2;2.8;;;;;;;;;;;;;
2020/04/26 17:14:09;;;;;;;4.9;2.7;;;;;;;;;;;;;
2020/04/26 17:16:34;;;;;;;12.6;5.2;;;;;;;;;;;;;
2020/04/26 17:18:59;;;;;;;10.9;6;;;;;;;;;;;;;
2020/04/26 17:21:24;;;;;;;11.7;5.4;;;;;;;;;;;;;
2020/04/26 17:23:49;;;;;;;6.8;4.5;;;;;;;;;;;;;
2020/04/26 17:26:14;;;;;;;10;5.4;;;;;;;;;;;;;
2020/04/26 17:28:39;;;;;;;13.3;9;;;;;;;;;;;;;
2020/04/26 17:31:04;;;;;;;11.6;7.3;;;;;;;;;;;;;
2020/04/26 17:33:29;;;;;;;8.5;4.7;;;;;;;;;;;;;
2020/04/26 17:35:54;;;;;;;7.6;4.5;;;;;;;;;;;;;
2020/04/26 17:38:19;;;;;;;9.8;4.5;;;;;;;;;;;;;
2020/04/26 17:40:45;;;;;;;8.5;4.6;;;;;;;;;;;;;
2020/04/26 17:43:10;;;;;;;9.8;4.6;;;;;;;;;;;;;
2020/04/26 17:45:35;;;;;;;12.4;6.5;;;;;;;;;;;;;
2020/04/26 17:48:00;;;;;;;19.1;6.7;;;;;;;;;;;;;
2020/04/26 17:50:25;;;;;;;11;5.9;;;;;;;;;;;;;
2020/04/26 17:52:50;;;;;;;10.1;6.1;;;;;;;;;;;;;
2020/04/26 17:55:15;;;;;;;8.3;5.3;;;;;;;;;;;;;
2020/04/26 17:57:41;;;;;;;13.8;7.7;;;;;;;;;;;;;
2020/04/26 18:00:07;;;;;;;11.3;6.1;;;;;;;;;;;;;
2020/04/26 18:02:31;;;;;;;10.3;5.7;;;;;;;;;;;;;
2020/04/26 18:04:56;;;;;;;7.8;5.2;;;;;;;;;;;;;
2020/04/26 18:07:21;;;;;;;5.3;4.1;;;;;;;;;;;;;
2020/04/26 18:09:46;;;;;;;4.7;3.5;;;;;;;;;;;;;
2020/04/26 18:12:11;;;;;;;7.8;4;;;;;;;;;;;;;
2020/04/26 18:14:37;;;;;;;9.4;4.1;;;;;;;;;;;;;
2020/04/26 18:17:02;;;;;;;8.6;3.6;;;;;;;;;;;;;
2020/04/26 18:19:27;;;;;;;8.3;4.9;;;;;;;;;;;;;
2020/04/26 18:21:52;;;;;;;8;5.6;;;;;;;;;;;;;
2020/04/26 18:24:17;;;;;;;8.9;5.2;;;;;;;;;;;;;
2020/04/26 18:26:42;;;;;;;6;4.1;;;;;;;;;;;;;
2020/04/26 18:29:07;;;;;;;7;4.1;;;;;;;;;;;;;
2020/04/26 18:31:33;;;;;;;7.6;3.9;;;;;;;;;;;;;
2020/04/26 18:33:58;;;;;;;6.8;3.6;;;;;;;;;;;;;
2020/04/26 18:36:23;;;;;;;7.7;4.4;;;;;;;;;;;;;
2020/04/26 18:38:48;;;;;;;10.8;4.5;;;;;;;;;;;;;
2020/04/26 18:41:13;;;;;;;9.7;4;;;;;;;;;;;;;
2020/04/26 18:43:38;;;;;;;7.2;4.4;;;;;;;;;;;;;
2020/04/26 18:46:03;;;;;;;9.1;4.5;;;;;;;;;;;;;
2020/04/26 18:48:29;;;;;;;12.1;4.2;;;;;;;;;;;;;
2020/04/26 18:50:54;;;;;;;6.9;4.1;;;;;;;;;;;;;
2020/04/26 18:53:20;;;;;;;5.2;3.5;;;;;;;;;;;;;
2020/04/26 18:55:44;;;;;;;9.3;4;;;;;;;;;;;;;
2020/04/26 18:58:10;;;;;;;8.8;4.2;;;;;;;;;;;;;
2020/04/26 19:03:00;;;;;;;9.4;4.3;;;;;;;;;;;;;
2020/04/26 19:05:25;;;;;;;8.2;4.5;;;;;;;;;;;;;
2020/04/26 19:07:50;;;;;;;9.8;4.3;;;;;;;;;;;;;
2020/04/26 19:10:15;;;;;;;9.3;3.8;;;;;;;;;;;;;
2020/04/26 19:12:40;;;;;;;7.3;4;;;;;;;;;;;;;
2020/04/26 19:15:05;;;;;;;8.7;4.3;;;;;;;;;;;;;
2020/04/26 19:17:30;;;;;;;10.2;4.1;;;;;;;;;;;;;
2020/04/26 19:19:56;;;;;;;6.5;4;;;;;;;;;;;;;
2020/04/26 19:22:22;;;;;;;7.2;4.6;;;;;;;;;;;;;
2020/04/26 19:24:47;;;;;;;12.9;5.8;;;;;;;;;;;;;
2020/04/26 19:27:12;;;;;;;11.5;5.4;;;;;;;;;;;;;
2020/04/26 19:29:37;;;;;;;11.2;5;;;;;;;;;;;;;
2020/04/26 19:32:02;;;;;;;13;4.9;;;;;;;;;;;;;
2020/04/26 19:34:27;;;;;;;10.5;5.2;;;;;;;;;;;;;
2020/04/26 19:36:52;;;;;;;9.4;4.7;;;;;;;;;;;;;
2020/04/26 19:39:18;;;;;;;10.7;4.9;;;;;;;;;;;;;
2020/04/26 19:41:43;;;;;;;13.8;7.1;;;;;;;;;;;;;
2020/04/26 19:44:08;;;;;;;10.9;6.6;;;;;;;;;;;;;
2020/04/26 19:46:33;;;;;;;12.8;7.8;;;;;;;;;;;;;
2020/04/26 19:48:58;;;;;;;9.2;6;;;;;;;;;;;;;
2020/04/26 19:51:23;;;;;;;11.9;6.3;;;;;;;;;;;;;
2020/04/26 19:53:49;;;;;;;9.9;5.4;;;;;;;;;;;;;
2020/04/26 19:56:13;;;;;;;9.9;5;;;;;;;;;;;;;
2020/04/26 19:58:39;;;;;;;7;4.7;;;;;;;;;;;;;
2020/04/26 20:01:04;;;;;;;10.1;5.1;;;;;;;;;;;;;
2020/04/26 20:03:31;;;;;;;11.3;5.1;;;;;;;;;;;;;
2020/04/26 20:06:00;;;;;;;11.3;6.5;;;;;;;;;;;;;
2020/04/26 20:08:19;;;;;;;9.9;5.9;;;;;;;;;;;;;
2020/04/26 20:10:44;;;;;;;7.9;5.6;;;;;;;;;;;;;
2020/04/26 20:13:09;;;;;;;8.4;5.7;;;;;;;;;;;;;
2020/04/26 20:15:34;;;;;;;9.1;5.3;;;;;;;;;;;;;
2020/04/26 20:17:59;;;;;;;11.1;5.1;;;;;;;;;;;;;
2020/04/26 20:20:25;;;;;;;7.1;4.5;;;;;;;;;;;;;
2020/04/26 20:22:50;;;;;;;5.8;4.1;;;;;;;;;;;;;
2020/04/26 20:25:16;;;;;;;6.4;4.3;;;;;;;;;;;;;
2020/04/26 20:27:41;;;;;;;7.2;5.1;;;;;;;;;;;;;
2020/04/26 20:30:06;;;;;;;9.1;5.1;;;;;;;;;;;;;
2020/04/26 20:32:31;;;;;;;11.1;5.5;;;;;;;;;;;;;
2020/04/26 20:34:56;;;;;;;8.2;6.1;;;;;;;;;;;;;
2020/04/26 20:37:21;;;;;;;9.8;6.1;;;;;;;;;;;;;
2020/04/26 20:39:46;;;;;;;8.7;5.5;;;;;;;;;;;;;
2020/04/26 20:42:12;;;;;;;9.2;5.3;;;;;;;;;;;;;
2020/04/26 20:44:37;;;;;;;10.1;6.8;;;;;;;;;;;;;
2020/04/26 20:47:02;;;;;;;12;8.5;;;;;;;;;;;;;
2020/04/26 20:49:28;;;;;;;12.3;7.3;;;;;;;;;;;;;
2020/04/26 20:51:53;;;;;;;8.2;4.3;;;;;;;;;;;;;
2020/04/26 20:54:18;;;;;;;6.5;4.5;;;;;;;;;;;;;
2020/04/26 20:56:43;;;;;;;5.1;4.1;;;;;;;;;;;;;
2020/04/26 20:59:08;;;;;;;5.2;4.3;;;;;;;;;;;;;
2020/04/26 21:01:33;;;;;;;7.3;5.2;;;;;;;;;;;;;
2020/04/26 21:03:58;;;;;;;8.9;5.2;;;;;;;;;;;;;
2020/04/26 21:06:23;;;;;;;6.4;4.5;;;;;;;;;;;;;
2020/04/26 21:08:48;;;;;;;5.1;3.8;;;;;;;;;;;;;
2020/04/26 21:11:13;;;;;;;7.7;4.1;;;;;;;;;;;;;
2020/04/26 21:13:38;;;;;;;16;10.5;;;;;;;;;;;;;
2020/04/26 21:16:04;;;;;;;9.7;6.1;;;;;;;;;;;;;
2020/04/26 21:18:29;;;;;;;9.7;5.8;;;;;;;;;;;;;
2020/04/26 21:20:55;;;;;;;6.1;4.7;;;;;;;;;;;;;
2020/04/26 21:23:19;;;;;;;7;4.9;;;;;;;;;;;;;
2020/04/26 21:25:44;;;;;;;10;5.1;;;;;;;;;;;;;
2020/04/26 21:28:10;;;;;;;7.8;4.8;;;;;;;;;;;;;
2020/04/26 21:30:34;;;;;;;6.7;4.6;;;;;;;;;;;;;
2020/04/26 21:33:00;;;;;;;6.1;4.3;;;;;;;;;;;;;
2020/04/26 21:35:25;;;;;;;8.5;6.2;;;;;;;;;;;;;
2020/04/26 21:37:50;;;;;;;6;4.4;;;;;;;;;;;;;
2020/04/26 21:40:15;;;;;;;6.1;4.1;;;;;;;;;;;;;
2020/04/26 21:42:40;;;;;;;5.9;4;;;;;;;;;;;;;
2020/04/26 21:45:06;;;;;;;4.5;3.5;;;;;;;;;;;;;
2020/04/26 21:47:31;;;;;;;4.2;3.8;;;;;;;;;;;;;
2020/04/26 21:49:56;;;;;;;4.9;3.6;;;;;;;;;;;;;
2020/04/26 21:52:23;;;;;;;4.8;3.7;;;;;;;;;;;;;
2020/04/26 21:54:46;;;;;;;5.1;3.7;;;;;;;;;;;;;
2020/04/26 21:57:11;;;;;;;7.1;3.6;;;;;;;;;;;;;
2020/04/26 21:59:36;;;;;;;5.5;3.9;;;;;;;;;;;;;
2020/04/26 22:02:02;;;;;;;4.6;4.1;;;;;;;;;;;;;
2020/04/26 22:04:27;;;;;;;6.6;4.3;;;;;;;;;;;;;
2020/04/26 22:06:52;;;;;;;5.7;3.8;;;;;;;;;;;;;
2020/04/26 22:09:24;;;;;;;6;4;;;;;;;;;;;;;
2020/04/26 22:11:49;;;;;;;6.6;4;;;;;;;;;;;;;
2020/04/26 22:14:14;;;;;;;9.6;4.6;;;;;;;;;;;;;
2020/04/26 22:16:39;;;;;;;9.2;4.3;;;;;;;;;;;;;
2020/04/26 22:19:04;;;;;;;9.8;4.7;;;;;;;;;;;;;
2020/04/26 22:21:29;;;;;;;8.3;4.9;;;;;;;;;;;;;
2020/04/26 22:23:54;;;;;;;9.1;5.4;;;;;;;;;;;;;
2020/04/26 22:26:19;;;;;;;8.2;4.8;;;;;;;;;;;;;
2020/04/26 22:28:44;;;;;;;6.6;4.6;;;;;;;;;;;;;
2020/04/26 22:31:10;;;;;;;6.4;4.3;;;;;;;;;;;;;
2020/04/26 22:33:35;;;;;;;7.1;4.2;;;;;;;;;;;;;
2020/04/26 22:36:00;;;;;;;6.2;4.5;;;;;;;;;;;;;
2020/04/26 22:38:25;;;;;;;7.3;4.3;;;;;;;;;;;;;
2020/04/26 22:40:50;;;;;;;5.5;3.9;;;;;;;;;;;;;
2020/04/26 22:43:15;;;;;;;6.3;4.7;;;;;;;;;;;;;
2020/04/26 22:45:40;;;;;;;7.3;4.9;;;;;;;;;;;;;
2020/04/26 22:48:05;;;;;;;6.8;4.9;;;;;;;;;;;;;
2020/04/26 22:50:30;;;;;;;6.9;4.1;;;;;;;;;;;;;
2020/04/26 22:52:56;;;;;;;4.8;4;;;;;;;;;;;;;
2020/04/26 22:55:21;;;;;;;6.1;3.8;;;;;;;;;;;;;
2020/04/26 22:57:46;;;;;;;6.5;3.9;;;;;;;;;;;;;
2020/04/26 23:00:11;;;;;;;5.3;3.9;;;;;;;;;;;;;
2020/04/26 23:02:36;;;;;;;5.5;3.9;;;;;;;;;;;;;